createdAt,value
2023-05-20T00:00:27.398Z,7.10
2023-05-20T00:02:55.044Z,6.32
2023-05-20T00:05:22.660Z,6.93
2023-05-20T00:07:50.298Z,7.43
2023-05-20T00:10:18.000Z,7.68
2023-05-20T00:12:45.537Z,7.20
2023-05-20T00:15:12.976Z,6.88
2023-05-20T00:17:40.609Z,7.80
2023-05-20T00:20:08.617Z,7.78
2023-05-20T00:22:36.171Z,7.75
2023-05-20T00:25:03.773Z,7.13
2023-05-20T00:27:31.319Z,8.20
2023-05-20T00:29:59.096Z,7.72
2023-05-20T00:32:26.962Z,7.43
2023-05-20T00:35:01.728Z,7.50
2023-05-20T00:37:29.502Z,7.50
2023-05-20T00:39:57.020Z,8.35
2023-05-20T00:42:29.327Z,7.90
2023-05-20T00:44:57.007Z,7.80
2023-05-20T00:49:54.572Z,7.75
2023-05-20T00:52:22.836Z,7.30
2023-05-20T00:54:51.637Z,8.00
2023-05-20T00:57:20.513Z,8.52
2023-05-20T00:59:48.041Z,8.25
2023-05-20T01:02:16.184Z,8.77
2023-05-20T01:04:47.309Z,7.82
2023-05-20T01:07:19.506Z,7.65
2023-05-20T01:09:47.364Z,7.60
2023-05-20T01:12:26.445Z,7.85
2023-05-20T01:15:01.995Z,8.48
2023-05-20T01:17:38.114Z,8.13
2023-05-20T01:20:10.398Z,7.53
2023-05-20T01:22:53.850Z,8.50
2023-05-20T01:25:22.266Z,8.38
2023-05-20T01:27:51.796Z,8.25
2023-05-20T01:30:19.578Z,7.93
2023-05-20T01:32:54.213Z,8.20
2023-05-20T01:35:23.677Z,7.95
2023-05-20T01:37:53.093Z,8.40
2023-05-20T01:40:22.273Z,8.73
2023-05-20T01:42:53.549Z,8.40
2023-05-20T01:45:23.593Z,8.02
2023-05-20T01:47:51.374Z,9.27
2023-05-20T01:50:18.987Z,8.23
2023-05-20T01:52:46.638Z,8.25
2023-05-20T01:55:14.746Z,8.80
2023-05-20T01:57:42.727Z,8.50
2023-05-20T02:00:11.495Z,9.65
2023-05-20T02:02:41.746Z,8.35
2023-05-20T02:05:12.103Z,10.23
2023-05-20T02:07:39.813Z,8.10
2023-05-20T02:10:07.754Z,9.70
2023-05-20T02:12:35.399Z,9.15
2023-05-20T02:15:03.079Z,9.00
2023-05-20T02:17:31.446Z,9.32
2023-05-20T02:19:59.069Z,9.02
2023-05-20T02:22:27.184Z,10.32
2023-05-20T02:27:21.857Z,9.18
2023-05-20T02:32:20.761Z,8.68
2023-05-20T02:34:48.245Z,9.40
2023-05-20T02:39:43.007Z,8.52
2023-05-20T02:44:38.604Z,8.48
2023-05-20T02:47:06.327Z,9.55
2023-05-20T02:49:33.895Z,9.38
2023-05-20T02:52:02.569Z,9.35
2023-05-20T02:54:30.118Z,8.98
2023-05-20T02:56:57.725Z,9.48
2023-05-20T02:59:25.195Z,9.48
2023-05-20T03:04:21.948Z,9.35
2023-05-20T03:06:49.561Z,9.75
2023-05-20T03:09:17.159Z,9.55
2023-05-20T03:11:45.070Z,10.27
2023-05-20T03:14:12.571Z,10.20
2023-05-20T03:16:40.503Z,9.43
2023-05-20T03:19:08.243Z,10.10
2023-05-20T03:21:36.358Z,9.40
2023-05-20T03:24:04.059Z,10.38
2023-05-20T03:26:33.354Z,10.00
2023-05-20T03:29:00.965Z,9.63
2023-05-20T03:31:28.446Z,10.63
2023-05-20T03:33:56.180Z,10.77
2023-05-20T03:38:51.331Z,9.85
2023-05-20T03:41:18.925Z,11.20
2023-05-20T03:43:46.655Z,10.18
2023-05-20T03:46:14.205Z,11.00
2023-05-20T03:48:42.080Z,11.13
2023-05-20T03:51:09.538Z,11.93
2023-05-20T03:53:37.086Z,10.23
2023-05-20T03:56:04.930Z,10.85
2023-05-20T03:58:32.784Z,11.98
2023-05-20T04:01:00.195Z,10.80
2023-05-20T04:03:29.113Z,10.57
2023-05-20T04:05:56.655Z,10.93
2023-05-20T04:08:26.127Z,11.35
2023-05-20T04:10:57.662Z,11.23
2023-05-20T04:13:25.980Z,10.82
2023-05-20T04:15:53.556Z,10.93
2023-05-20T04:18:21.438Z,11.40
2023-05-20T04:20:48.939Z,10.85
2023-05-20T04:23:17.070Z,10.93
2023-05-20T04:25:44.902Z,11.27
2023-05-20T04:28:16.403Z,11.02
2023-05-20T04:30:45.349Z,10.77
2023-05-20T04:33:14.971Z,10.43
2023-05-20T04:35:44.349Z,10.88
2023-05-20T04:38:12.007Z,11.70
2023-05-20T04:40:40.255Z,10.45
2023-05-20T04:43:08.116Z,12.07
2023-05-20T04:45:36.823Z,10.50
2023-05-20T04:48:06.186Z,10.73
2023-05-20T04:50:38.002Z,10.65
2023-05-20T04:53:08.943Z,10.90
2023-05-20T04:55:37.543Z,10.20
2023-05-20T04:58:05.034Z,10.48
2023-05-20T05:00:32.766Z,10.32
2023-05-20T05:03:01.425Z,10.32
2023-05-20T05:05:28.977Z,10.68
2023-05-20T05:10:25.306Z,10.02
2023-05-20T05:12:52.926Z,10.10
2023-05-20T05:15:20.623Z,9.25
2023-05-20T05:17:48.284Z,9.75
2023-05-20T05:20:16.593Z,10.18
2023-05-20T05:22:45.009Z,9.73
2023-05-20T05:25:13.792Z,10.43
2023-05-20T05:27:43.056Z,9.40
2023-05-20T05:30:10.942Z,9.75
2023-05-20T05:32:38.890Z,9.73
2023-05-20T05:35:08.252Z,9.57
2023-05-20T05:37:36.198Z,8.93
2023-05-20T05:40:05.368Z,9.32
2023-05-20T05:42:32.938Z,9.18
2023-05-20T05:45:01.601Z,9.10
2023-05-20T05:47:32.687Z,9.55
2023-05-20T05:50:01.115Z,8.90
2023-05-20T05:52:36.152Z,8.55
2023-05-20T05:55:05.238Z,8.32
2023-05-20T05:57:32.830Z,8.68
2023-05-20T06:00:01.819Z,8.65
2023-05-20T06:02:36.525Z,8.15
2023-05-20T06:05:05.353Z,9.25
2023-05-20T06:07:33.811Z,8.35
2023-05-20T06:10:02.085Z,8.48
2023-05-20T06:12:29.560Z,8.43
2023-05-20T06:14:57.102Z,8.32
2023-05-20T06:17:24.654Z,8.07
2023-05-20T06:19:52.256Z,7.78
2023-05-20T06:22:19.889Z,8.30
2023-05-20T06:24:47.686Z,8.50
2023-05-20T06:27:15.151Z,8.23
2023-05-20T06:29:43.896Z,8.77
2023-05-20T06:32:11.998Z,8.73
2023-05-20T06:34:41.118Z,7.95
2023-05-20T06:37:08.613Z,7.43
2023-05-20T06:39:36.521Z,8.00
2023-05-20T06:42:04.134Z,7.82
2023-05-20T06:44:36.130Z,7.97
2023-05-20T06:47:17.892Z,8.65
2023-05-20T06:49:47.788Z,8.05
2023-05-20T06:52:16.496Z,8.18
2023-05-20T06:54:43.988Z,7.93
2023-05-20T06:57:12.263Z,8.73
2023-05-20T06:59:41.790Z,8.68
2023-05-20T07:02:09.814Z,8.23
2023-05-20T07:04:38.392Z,8.20
2023-05-20T07:07:06.025Z,8.70
2023-05-20T07:09:33.569Z,7.75
2023-05-20T07:12:02.074Z,7.50
2023-05-20T07:14:29.786Z,7.68
2023-05-20T07:16:57.275Z,7.80
2023-05-20T07:19:25.090Z,7.93
2023-05-20T07:21:52.682Z,7.60
2023-05-20T07:24:42.883Z,7.95
2023-05-20T07:27:10.866Z,7.72
2023-05-20T07:29:38.894Z,7.93
2023-05-20T07:32:08.811Z,7.93
2023-05-20T07:34:36.715Z,7.95
2023-05-20T07:37:04.283Z,8.20
2023-05-20T07:39:41.847Z,7.90
2023-05-20T07:42:12.501Z,6.18
2023-05-20T07:44:44.063Z,7.07
2023-05-20T07:47:11.878Z,7.10
2023-05-20T07:49:39.749Z,6.68
2023-05-20T07:52:08.128Z,7.40
2023-05-20T07:54:35.831Z,7.00
2023-05-20T07:57:04.082Z,7.43
2023-05-20T07:59:32.045Z,6.85
2023-05-20T08:01:59.752Z,6.47
2023-05-20T08:04:27.853Z,6.68
2023-05-20T08:06:56.976Z,7.13
2023-05-20T08:09:47.035Z,7.32
2023-05-20T08:12:14.714Z,7.00
2023-05-20T08:14:42.200Z,6.63
2023-05-20T08:17:10.221Z,6.68
2023-05-20T08:19:37.850Z,7.18
2023-05-20T08:22:06.457Z,6.60
2023-05-20T08:24:33.956Z,7.43
2023-05-20T08:27:01.444Z,6.10
2023-05-20T08:29:29.398Z,6.97
2023-05-20T08:31:58.426Z,7.50
2023-05-20T08:34:27.230Z,7.57
2023-05-20T08:36:54.828Z,7.78
2023-05-20T08:39:22.327Z,8.18
2023-05-20T08:41:51.130Z,7.18
2023-05-20T08:44:19.618Z,6.47
2023-05-20T08:46:48.882Z,6.68
2023-05-20T08:49:16.751Z,7.05
2023-05-20T08:51:46.373Z,5.97
2023-05-20T08:54:16.961Z,6.25
2023-05-20T08:56:45.069Z,5.72
2023-05-20T08:59:12.711Z,5.93
2023-05-20T09:01:44.175Z,6.07
2023-05-20T09:04:12.036Z,6.47
2023-05-20T09:06:47.035Z,6.82
2023-05-20T09:09:15.064Z,6.32
2023-05-20T09:11:43.097Z,6.43
2023-05-20T09:14:10.850Z,5.90
2023-05-20T09:16:41.164Z,5.65
2023-05-20T09:19:09.980Z,6.07
2023-05-20T09:21:39.140Z,6.25
2023-05-20T09:24:07.333Z,5.93
2023-05-20T09:26:34.852Z,6.15
2023-05-20T09:29:02.337Z,5.72
2023-05-20T09:31:35.882Z,5.45
2023-05-20T09:34:03.649Z,5.50
2023-05-20T09:36:35.031Z,5.25
2023-05-20T09:39:05.394Z,5.07
2023-05-20T09:41:45.141Z,5.95
2023-05-20T09:44:13.226Z,4.57
2023-05-20T09:46:41.605Z,4.63
2023-05-20T09:49:10.303Z,5.13
2023-05-20T09:51:38.062Z,4.60
2023-05-20T09:54:08.531Z,4.60
2023-05-20T09:56:37.369Z,4.65
2023-05-20T09:59:05.889Z,4.68
2023-05-20T10:01:33.318Z,4.75
2023-05-20T10:04:01.937Z,4.30
2023-05-20T10:06:56.229Z,4.75
2023-05-20T10:09:45.887Z,4.07
2023-05-20T10:12:45.564Z,4.80
2023-05-20T10:15:31.199Z,4.70
2023-05-20T10:18:15.467Z,4.60
2023-05-20T10:20:48.147Z,4.18
2023-05-20T10:23:29.147Z,4.18
2023-05-20T10:25:57.395Z,5.18
2023-05-20T10:28:33.175Z,4.10
2023-05-20T10:31:01.058Z,4.90
2023-05-20T10:33:29.803Z,6.10
2023-05-20T10:36:01.213Z,4.45
2023-05-20T10:38:28.805Z,4.40
2023-05-20T10:40:57.510Z,3.55
2023-05-20T10:43:29.312Z,3.40
2023-05-20T10:45:58.342Z,4.47
2023-05-20T10:48:29.104Z,3.95
2023-05-20T10:50:58.284Z,3.90
2023-05-20T10:53:33.582Z,3.95
2023-05-20T10:56:03.156Z,5.25
2023-05-20T10:58:38.469Z,3.90
2023-05-20T11:01:06.699Z,4.05
2023-05-20T11:03:36.393Z,4.38
2023-05-20T11:06:16.140Z,4.95
2023-05-20T11:08:46.424Z,4.18
2023-05-20T11:11:15.444Z,4.55
2023-05-20T11:13:43.161Z,4.82
2023-05-20T11:16:11.102Z,4.38
2023-05-20T11:18:38.679Z,5.10
2023-05-20T11:21:06.738Z,4.80
2023-05-20T11:23:34.252Z,5.10
2023-05-20T11:26:01.772Z,5.13
2023-05-20T11:28:31.006Z,4.93
2023-05-20T11:30:59.811Z,4.60
2023-05-20T11:33:27.715Z,4.72
2023-05-20T11:35:55.500Z,4.30
2023-05-20T11:38:22.978Z,4.47
2023-05-20T11:40:55.319Z,4.88
2023-05-20T11:43:24.427Z,4.80
2023-05-20T11:45:59.437Z,5.10
2023-05-20T11:48:27.311Z,4.30
2023-05-20T11:50:56.441Z,4.50
2023-05-20T11:53:24.605Z,4.80
2023-05-20T11:56:00.023Z,4.97
2023-05-20T11:58:31.447Z,3.92
2023-05-20T12:01:05.762Z,4.63
2023-05-20T12:03:41.681Z,4.85
2023-05-20T12:06:12.153Z,5.00
2023-05-20T12:08:39.668Z,4.50
2023-05-20T12:11:07.237Z,4.57
2023-05-20T12:13:35.549Z,4.50
2023-05-20T12:16:05.821Z,4.60
2023-05-20T12:18:33.551Z,4.22
2023-05-20T12:21:01.421Z,4.38
2023-05-20T12:23:30.869Z,4.10
2023-05-20T12:25:58.381Z,3.80
2023-05-20T12:28:26.180Z,4.13
2023-05-20T12:30:53.608Z,4.22
2023-05-20T12:33:21.338Z,4.05
2023-05-20T12:35:48.747Z,4.10
2023-05-20T12:38:16.354Z,4.32
2023-05-20T12:40:44.193Z,4.22
2023-05-20T12:43:11.658Z,4.53
2023-05-20T12:45:39.072Z,4.95
2023-05-20T12:48:08.118Z,4.50
2023-05-20T12:50:35.887Z,3.63
2023-05-20T12:53:03.786Z,3.20
2023-05-20T12:55:31.309Z,4.25
2023-05-20T12:57:58.777Z,3.97
2023-05-20T13:00:26.199Z,3.55
2023-05-20T13:02:54.887Z,3.65
2023-05-20T13:05:23.093Z,3.80
2023-05-20T13:07:50.797Z,3.28
2023-05-20T13:10:18.798Z,3.78
2023-05-20T13:12:46.593Z,3.80
2023-05-20T13:15:17.020Z,3.58
2023-05-20T13:17:44.837Z,3.22
2023-05-20T13:20:13.135Z,4.13
2023-05-20T13:22:40.872Z,4.10
2023-05-20T13:25:09.619Z,3.65
2023-05-20T13:27:37.888Z,3.95
2023-05-20T13:30:06.949Z,3.55
2023-05-20T13:32:34.540Z,3.90
2023-05-20T13:35:07.873Z,3.38
2023-05-20T13:37:37.129Z,3.90
2023-05-20T13:40:04.914Z,4.00
2023-05-20T13:42:32.480Z,3.45
2023-05-20T13:44:59.898Z,3.97
2023-05-20T13:47:27.549Z,3.38
2023-05-20T13:49:55.270Z,3.60
2023-05-20T13:52:22.870Z,4.15
2023-05-20T13:54:50.312Z,3.80
2023-05-20T13:57:17.816Z,3.65
2023-05-20T13:59:45.337Z,3.38
2023-05-20T14:02:12.998Z,3.78
2023-05-20T14:04:41.126Z,3.97
2023-05-20T14:07:10.032Z,3.60
2023-05-20T14:09:37.944Z,3.90
2023-05-20T14:12:06.446Z,3.95
2023-05-20T14:14:34.300Z,3.53
2023-05-20T14:17:01.878Z,3.40
2023-05-20T14:19:30.261Z,5.03
2023-05-20T14:22:01.178Z,3.92
2023-05-20T14:24:29.127Z,3.95
2023-05-20T14:26:56.739Z,3.55
2023-05-20T14:29:24.351Z,4.10
2023-05-20T14:31:51.777Z,3.78
2023-05-20T14:34:19.285Z,4.55
2023-05-20T14:36:47.121Z,3.60
2023-05-20T14:39:14.751Z,4.43
2023-05-20T14:41:42.173Z,5.30
2023-05-20T14:44:09.677Z,4.63
2023-05-20T14:46:37.225Z,4.95
2023-05-20T14:49:05.094Z,4.38
2023-05-20T14:51:32.696Z,4.50
2023-05-20T14:54:00.239Z,4.68
2023-05-20T14:56:27.694Z,4.13
2023-05-20T14:58:55.150Z,3.88
2023-05-20T15:01:22.727Z,4.28
2023-05-20T15:03:50.369Z,3.75
2023-05-20T15:06:17.939Z,5.43
2023-05-20T15:08:45.576Z,4.75
2023-05-20T15:11:13.063Z,4.03
2023-05-20T15:13:40.965Z,4.03
2023-05-20T15:16:08.457Z,4.28
2023-05-20T15:18:37.171Z,4.13
2023-05-20T15:21:04.978Z,4.75
2023-05-20T15:23:32.403Z,5.25
2023-05-20T15:25:59.922Z,4.47
2023-05-20T15:28:27.481Z,4.10
2023-05-20T15:30:56.505Z,3.80
2023-05-20T15:33:24.265Z,4.65
2023-05-20T15:35:52.002Z,4.15
2023-05-20T15:38:19.535Z,4.43
2023-05-20T15:40:47.520Z,4.20
2023-05-20T15:43:15.236Z,4.10
2023-05-20T15:45:43.078Z,3.53
2023-05-20T15:48:11.680Z,3.80
2023-05-20T15:50:39.243Z,3.88
2023-05-20T15:53:08.085Z,4.25
2023-05-20T15:55:35.879Z,3.63
2023-05-20T15:58:03.383Z,3.22
2023-05-20T16:00:31.536Z,3.97
2023-05-20T16:02:59.451Z,3.28
2023-05-20T16:05:27.099Z,3.92
2023-05-20T16:07:55.301Z,3.30
2023-05-20T16:10:25.311Z,3.53
2023-05-20T16:12:53.632Z,3.10
2023-05-20T16:15:21.131Z,2.97
2023-05-20T16:17:48.819Z,3.00
2023-05-20T16:20:16.438Z,3.40
2023-05-20T16:22:43.967Z,3.42
2023-05-20T16:25:11.376Z,3.38
2023-05-20T16:27:39.033Z,3.33
2023-05-20T16:30:08.280Z,3.40
2023-05-20T16:32:35.802Z,3.63
2023-05-20T16:35:03.478Z,3.63
2023-05-20T16:37:31.019Z,3.20
2023-05-20T16:39:58.730Z,3.70
2023-05-20T16:42:26.314Z,3.67
2023-05-20T16:44:54.290Z,2.90
2023-05-20T16:47:21.946Z,3.30
2023-05-20T16:49:49.481Z,3.80
2023-05-20T16:52:17.080Z,3.13
2023-05-20T16:54:45.008Z,3.42
2023-05-20T16:57:14.253Z,3.03
2023-05-20T16:59:41.911Z,3.28
2023-05-20T17:02:09.590Z,3.10
2023-05-20T17:04:37.279Z,2.83
2023-05-20T17:07:05.159Z,3.00
2023-05-20T17:09:32.567Z,3.15
2023-05-20T17:12:00.126Z,3.22
2023-05-20T17:14:27.744Z,3.10
2023-05-20T17:16:55.447Z,3.47
2023-05-20T17:19:23.226Z,3.40
2023-05-20T17:21:50.934Z,3.35
2023-05-20T17:24:18.316Z,3.30
2023-05-20T17:26:45.786Z,3.30
2023-05-20T17:29:13.590Z,3.55
2023-05-20T17:31:41.385Z,3.45
2023-05-20T17:34:08.932Z,3.28
2023-05-20T17:36:36.628Z,3.17
2023-05-20T17:39:04.728Z,3.38
2023-05-20T17:41:32.307Z,3.00
2023-05-20T17:44:01.559Z,3.03
2023-05-20T17:46:29.094Z,3.15
2023-05-20T17:48:56.927Z,3.45
2023-05-20T17:51:24.424Z,3.30
2023-05-20T17:53:51.924Z,3.47
2023-05-20T17:56:19.417Z,3.25
2023-05-20T17:58:47.049Z,3.40
2023-05-20T18:01:15.245Z,3.08
2023-05-20T18:03:42.886Z,3.70
2023-05-20T18:06:10.848Z,3.20
2023-05-20T18:08:38.329Z,2.95
2023-05-20T18:11:06.062Z,3.38
2023-05-20T18:13:33.541Z,3.10
2023-05-20T18:16:01.341Z,3.13
2023-05-20T18:18:28.834Z,3.08
2023-05-20T18:20:56.351Z,3.50
2023-05-20T18:23:23.815Z,3.83
2023-05-20T18:25:51.307Z,3.45
2023-05-20T18:28:18.771Z,3.08
2023-05-20T18:30:46.279Z,3.72
2023-05-20T18:33:13.829Z,2.90
2023-05-20T18:35:41.433Z,2.95
2023-05-20T18:38:08.843Z,2.80
2023-05-20T18:40:36.794Z,2.90
2023-05-20T18:43:04.617Z,2.60
2023-05-20T18:45:32.156Z,3.13
2023-05-20T18:48:00.332Z,3.10
2023-05-20T18:50:27.914Z,2.30
2023-05-20T18:52:55.390Z,2.97
2023-05-20T18:55:24.160Z,2.97
2023-05-20T18:57:52.003Z,3.10
2023-05-20T19:00:19.945Z,2.70
2023-05-20T19:02:47.433Z,2.80
2023-05-20T19:05:15.051Z,2.85
2023-05-20T19:07:42.500Z,2.70
2023-05-20T19:10:10.410Z,2.78
2023-05-20T19:12:37.949Z,2.95
2023-05-20T19:15:06.051Z,3.15
2023-05-20T19:17:33.532Z,3.25
2023-05-20T19:20:01.024Z,3.10
2023-05-20T19:22:28.416Z,3.03
2023-05-20T19:24:56.133Z,2.78
2023-05-20T19:27:23.600Z,2.88
2023-05-20T19:29:51.418Z,2.97
2023-05-20T19:32:18.897Z,3.00
2023-05-20T19:34:46.468Z,2.90
2023-05-20T19:37:13.916Z,3.13
2023-05-20T19:39:41.630Z,2.90
2023-05-20T19:42:09.121Z,3.10
2023-05-20T19:44:36.580Z,2.70
2023-05-20T19:47:05.754Z,2.78
2023-05-20T19:49:33.364Z,2.78
2023-05-20T19:52:00.767Z,3.42
2023-05-20T19:54:28.305Z,2.92
2023-05-20T19:56:55.921Z,2.40
2023-05-20T19:59:23.565Z,2.90
2023-05-20T20:01:51.633Z,2.40
2023-05-20T20:04:19.470Z,2.75
2023-05-20T20:06:48.165Z,3.00
2023-05-20T20:09:15.747Z,3.08
2023-05-20T20:11:43.441Z,2.55
2023-05-20T20:14:11.169Z,2.38
2023-05-20T20:16:38.713Z,3.00
2023-05-20T20:19:06.296Z,2.65
2023-05-20T20:21:33.797Z,2.38
2023-05-20T20:24:01.536Z,3.00
2023-05-20T20:26:30.629Z,2.50
2023-05-20T20:28:58.128Z,2.90
2023-05-20T20:31:26.575Z,2.33
2023-05-20T20:33:54.035Z,2.40
2023-05-20T20:36:21.413Z,2.65
2023-05-20T20:38:48.870Z,2.58
2023-05-20T20:41:16.842Z,2.75
2023-05-20T20:43:47.767Z,2.60
2023-05-20T20:46:15.276Z,2.13
2023-05-20T20:48:45.908Z,2.55
2023-05-20T20:51:14.652Z,2.28
2023-05-20T20:53:42.964Z,2.78
2023-05-20T20:56:10.592Z,2.08
2023-05-20T20:58:39.212Z,2.67
2023-05-20T21:01:07.178Z,2.60
2023-05-20T21:03:34.688Z,2.40
2023-05-20T21:06:02.205Z,2.63
2023-05-20T21:08:30.580Z,2.60
2023-05-20T21:10:59.544Z,2.22
2023-05-20T21:13:27.790Z,2.17
2023-05-20T21:15:55.330Z,2.72
2023-05-20T21:18:23.967Z,2.60
2023-05-20T21:20:52.809Z,2.28
2023-05-20T21:23:21.297Z,2.70
2023-05-20T21:25:49.262Z,2.65
2023-05-20T21:28:16.831Z,3.05
2023-05-20T21:30:45.226Z,2.20
2023-05-20T21:33:12.896Z,2.60
2023-05-20T21:35:40.522Z,2.80
2023-05-20T21:38:08.158Z,2.75
2023-05-20T21:40:35.832Z,2.60
2023-05-20T21:43:03.581Z,2.58
2023-05-20T21:45:31.531Z,2.50
2023-05-20T21:47:59.256Z,2.45
2023-05-20T21:50:27.129Z,2.55
2023-05-20T21:52:54.714Z,2.80
2023-05-20T21:55:23.886Z,3.28
2023-05-20T21:57:51.350Z,2.70
2023-05-20T22:00:19.355Z,2.67
2023-05-20T22:02:47.250Z,2.75
2023-05-20T22:05:15.360Z,3.00
2023-05-20T22:07:44.604Z,2.85
2023-05-20T22:10:13.781Z,3.03
2023-05-20T22:12:44.099Z,3.15
2023-05-20T22:15:12.867Z,3.20
2023-05-20T22:17:41.098Z,2.42
2023-05-20T22:20:10.577Z,2.70
2023-05-20T22:22:41.727Z,3.08
2023-05-20T22:25:09.790Z,2.60
2023-05-20T22:27:37.340Z,3.30
2023-05-20T22:30:08.293Z,2.80
2023-05-20T22:32:35.914Z,2.55
2023-05-20T22:35:03.799Z,2.97
2023-05-20T22:37:31.418Z,3.00
2023-05-20T22:39:58.823Z,2.80
2023-05-20T22:42:26.380Z,2.58
2023-05-20T22:44:54.024Z,2.78
2023-05-20T22:47:21.589Z,3.00
2023-05-20T22:49:49.047Z,3.33
2023-05-20T22:52:16.571Z,2.80
2023-05-20T22:54:44.110Z,3.13
2023-05-20T22:57:12.252Z,3.28
2023-05-20T22:59:40.503Z,3.05
2023-05-20T23:02:08.280Z,2.83
2023-05-20T23:04:35.881Z,3.00
2023-05-20T23:07:03.625Z,2.97
2023-05-20T23:09:31.439Z,2.92
2023-05-20T23:11:58.964Z,3.30
2023-05-20T23:14:26.411Z,3.00
2023-05-20T23:16:54.108Z,3.33
2023-05-20T23:19:21.631Z,2.80
2023-05-20T23:21:49.131Z,3.08
2023-05-20T23:24:16.836Z,3.63
2023-05-20T23:26:44.457Z,3.40
2023-05-20T23:29:11.943Z,3.22
2023-05-20T23:31:40.044Z,3.25
2023-05-20T23:34:08.059Z,4.05
2023-05-20T23:36:35.600Z,3.70
2023-05-20T23:39:03.656Z,3.25
2023-05-20T23:41:31.195Z,3.17
2023-05-20T23:43:58.655Z,3.58
2023-05-20T23:46:26.108Z,3.55
2023-05-20T23:48:53.802Z,3.20
2023-05-20T23:51:21.253Z,3.72
2023-05-20T23:53:48.889Z,3.83
2023-05-20T23:56:16.385Z,3.03
2023-05-20T23:58:43.803Z,3.35
